The Florida Keys Marathon Airport
KMTH : rendu visible

Aérodrome :











RETROUVEZ-NOUS SUR...

 
LOGIN :

S'inscrire | Disclaimer

   EN    FR    IT 

 









Légende :    VFR   VFR Marginal   IFR   IFR Intensif   IFR Très Intensif
Visi : 
Plafond : 
>= 8 km
>= 3000ft
5 à 8 km
1000 à 3000 ft
1500m à 5 km
500 à 1000 ft
800 à 1500m
200 à 500 ft
< 800m
< 200 ft
Symboles :   Orages  Brouillard  Fortes neiges  Fortes précipitations  Vent > 20 kt






- Altitude de l'aérodrome : 5 ft


KMTH - The Florida Keys Marathon

DERNIER METAR :
  • 100753Z AUTO 11006KT 10SM BKN065 26/22 A3005 RMK AO2 SLP176 T02560217

METARs EXPIRÉS :
  • 100653Z AUTO 11008KT 10SM FEW060 26/22 A3006 RMK AO2 SLP178 T02560217
  • 100615Z AUTO 11008KT 10SM SCT025 SCT031 BKN060 26/22 A3006 RMK AO2 T02560222
  • 100603Z AUTO 11006KT 10SM BKN025 BKN060 26/22 A3006 RMK AO2 T02610222
  • 100553Z AUTO 10007KT 10SM SCT027 SCT035 BKN060 26/22 A3007 RMK AO2 SLP180 T02560217 10267 20256 58006

TAF KMTH
Valide du 10 à 06h jusqu'au 11 à 06h UTC


100536Z 1006/1106 11008G15KT P6SM SCT025 BKN050
FM101600 13010G17KT P6SM SCT025 SCT060



MET'MAP, la Météo Aéronautique d'un coup d'oeil ! - Copyright ORBIFLY Décembre 2007 - Disclaimer

ORBIFLY MET'MAP TEAM :

Programmation & Développement : Alexandra Zaïnal
Sur une idée originale de : Baudouin d'Aumeries
Assistance à la programmation : Marc-Olivier Méhu
Soutien technique & logistique : Manuel Goepfert

Contact : metmap@orbifly.com




SOURCES & CREDITS :

   NOAA       Earth
Advisory